Notice: Undefined index: language in /var/www/vam/vam/index.php on line 25
Air Côte d'Ivoire Virtuel

 METAR AND TAF INFORMATION
METAR FOR HSSS
ADDS - METARS form results

(0455 UTC 22 April 2019)
Data provider http://aviationweather.gov/metar/data/
 
METAR text: HSSS 220430Z 36009KT CAVOK 22/M04 Q1012 NOSIG
Conditions at: HSSS (KHARTOUM (CIV/MI, SD) observed 0430 UTC 22 April 2019
Temperature: 22.0°C (72°F)
Dewpoint: -4.0°C (25°F) [RH = 17%]
Pressure (altimeter): 29.88 inches Hg (1012.0 mb)
Winds: from the N (360 degrees) at 10 MPH (9 knots; 4.6 m/s)
Visibility: 6 or more miles (10+ km)
Ceiling: ceiling and visibility are OK
Clouds: unknown
Weather: no significant weather observed at this time

METAR text: HSSS 220400Z 35008KT CAVOK 21/M06 Q1011 NOSIG
Conditions at: HSSS (KHARTOUM (CIV/MI, SD) observed 0400 UTC 22 April 2019
Temperature: 21.0°C (70°F)
Dewpoint: -6.0°C (21°F) [RH = 16%]
Pressure (altimeter): 29.85 inches Hg (1011.0 mb)
Winds: from the N (350 degrees) at 9 MPH (8 knots; 4.1 m/s)
Visibility: 6 or more miles (10+ km)
Ceiling: ceiling and visibility are OK
Clouds: unknown
Weather: no significant weather observed at this time

Forecast for: HSSS (KHARTOUM (CIV/MI, SD)
Text: TAF HSSS 212300Z 2200/2306 34012G22KT CAVOK
Forecast period: 0000 UTC 22 April 2019 to 0600 UTC 23 April 2019
Forecast type: FROM: standard forecast or significant change
Winds: from the NNW (340 degrees) at 14 MPH (12 knots; 6.2 m/s)
gusting to 25 MPH (22 knots; 11.3 m/s)
Visibility: 6 or more miles 10+ km)
Ceiling: unknown
Clouds: missing
Weather: NSW  (no significant weather)
Text: TEMPO 2206/2209 6000
Forecast period: 0600 to 0900 UTC 22 April 2019
Forecast type: TEMPORARY: The following changes expected for less than half the time period
Visibility: 4 miles (6 km)
Ceiling: unknown
Clouds: missing
Weather: no significant weather forecast for this period

 AIRPORT MAP

 RUNWAY INFORMATION
Runway 18 Runway length 9751 ft Runway width 148 ft
Runway elevation 1265 ft Runway displaced threshold 0 ft Runway heading 177
Runway 36 Runway length 9751 ft Runway width 148 ft
Runway elevation 1260 ft Runway displaced threshold 0 ft Runway heading 357

 AIRPORT FREQUENCIES
Type APP Name Khartoum A Frequency 124.7 MHZ
Type EMR Name FIRE Frequency 121.9 MHZ
Type North Area Name North Sect Frequency 125.4 MHZ
Type South Area Name South Sect Frequency 127.3 MHZ
Type TWR Name Khartoum T Frequency 119.2 MHZ

 AIRPORT NEAR NAVIGATION AIDS
Type VOR-DME Name Khartoum Frequency 112100 KHZ





Site is not affiliated with, endorsed, or sponsored by Air Côte d'Ivoire. Air Côte d'Ivoire logo are registered trademarks of Air Côte d'Ivoire. ©2017 Air Côte d'Ivoire Virtuel. All rights reserved.